createdAt,value
2019-06-21T00:01:34.104Z,18.10
2019-06-21T00:04:07.775Z,18.07
2019-06-21T00:06:41.050Z,17.89
2019-06-21T00:09:11.692Z,17.77
2019-06-21T00:11:42.185Z,17.85
2019-06-21T00:14:12.867Z,17.77
2019-06-21T00:16:43.451Z,17.59
2019-06-21T00:19:13.965Z,17.61
2019-06-21T00:21:44.577Z,17.72
2019-06-21T00:24:15.170Z,17.73
2019-06-21T00:26:45.788Z,17.69
2019-06-21T00:29:16.358Z,17.67
2019-06-21T00:31:46.942Z,17.68
2019-06-21T00:34:17.570Z,17.71
2019-06-21T00:36:48.083Z,17.73
2019-06-21T00:39:18.750Z,17.71
2019-06-21T00:41:51.043Z,17.70
2019-06-21T00:44:21.697Z,17.73
2019-06-21T00:46:52.274Z,17.69
2019-06-21T00:49:22.873Z,17.57
2019-06-21T00:51:53.447Z,17.52
2019-06-21T00:54:24.026Z,17.51
2019-06-21T00:56:54.615Z,17.54
2019-06-21T00:59:27.228Z,17.48
2019-06-21T01:01:57.528Z,17.46
2019-06-21T01:04:29.630Z,17.44
2019-06-21T01:07:02.297Z,17.34
2019-06-21T01:09:32.859Z,17.47
2019-06-21T01:12:03.483Z,17.54
2019-06-21T01:14:34.020Z,17.56
2019-06-21T01:17:04.751Z,17.57
2019-06-21T01:19:35.525Z,17.52
2019-06-21T01:22:06.134Z,17.40
2019-06-21T01:24:36.723Z,17.39
2019-06-21T01:27:08.780Z,17.38
2019-06-21T01:29:39.361Z,17.38
2019-06-21T01:32:09.917Z,17.36
2019-06-21T01:34:40.559Z,17.26
2019-06-21T01:37:13.961Z,17.17
2019-06-21T01:39:44.585Z,17.18
2019-06-21T01:42:15.093Z,17.16
2019-06-21T01:44:45.651Z,17.26
2019-06-21T01:47:16.223Z,17.33
2019-06-21T01:49:46.812Z,17.39
2019-06-21T01:52:17.356Z,17.43
2019-06-21T01:54:47.956Z,17.47
2019-06-21T01:57:18.479Z,17.50
2019-06-21T01:59:49.058Z,17.53
2019-06-21T02:02:19.619Z,17.58
2019-06-21T02:04:50.217Z,17.60
2019-06-21T02:07:20.774Z,17.53
2019-06-21T02:09:51.336Z,17.50
2019-06-21T02:12:21.959Z,17.47
2019-06-21T02:14:52.486Z,17.44
2019-06-21T02:17:23.054Z,17.43
2019-06-21T02:19:53.585Z,17.36
2019-06-21T02:22:24.222Z,17.35
2019-06-21T02:24:54.778Z,17.29
2019-06-21T02:27:25.318Z,17.21
2019-06-21T02:29:59.295Z,17.20
2019-06-21T02:32:29.857Z,17.21
2019-06-21T02:35:00.396Z,17.18
2019-06-21T02:37:30.944Z,17.10
2019-06-21T02:40:01.512Z,17.10
2019-06-21T02:42:32.065Z,17.05
2019-06-21T02:45:02.648Z,16.99
2019-06-21T02:47:36.023Z,16.99
2019-06-21T02:50:08.818Z,16.98
2019-06-21T02:52:42.418Z,17.01
2019-06-21T02:55:20.091Z,17.01
2019-06-21T02:57:50.660Z,17.02
2019-06-21T03:00:39.653Z,17.02
2019-06-21T03:03:10.197Z,17.04
2019-06-21T03:05:40.853Z,16.97
2019-06-21T03:08:11.486Z,16.96
2019-06-21T03:10:42.042Z,16.96
2019-06-21T03:13:12.734Z,16.89
2019-06-21T03:15:43.328Z,16.72
2019-06-21T03:18:13.891Z,16.77
2019-06-21T03:20:44.406Z,16.80
2019-06-21T03:23:15.144Z,16.75
2019-06-21T03:25:45.746Z,16.69
2019-06-21T03:28:16.398Z,16.76
2019-06-21T03:30:46.923Z,16.81
2019-06-21T03:33:17.434Z,16.81
2019-06-21T03:35:48.113Z,16.82
2019-06-21T03:38:18.687Z,16.75
2019-06-21T03:40:49.224Z,16.64
2019-06-21T03:43:19.797Z,16.62
2019-06-21T03:45:50.306Z,16.62
2019-06-21T03:48:20.928Z,16.66
2019-06-21T03:51:30.542Z,16.63
2019-06-21T03:54:01.191Z,16.49
2019-06-21T03:56:31.778Z,16.56
2019-06-21T03:59:02.331Z,16.62
2019-06-21T04:01:32.918Z,16.64
2019-06-21T04:04:03.498Z,16.64
2019-06-21T04:06:34.102Z,16.58
2019-06-21T04:09:06.401Z,16.55
2019-06-21T04:11:37.003Z,16.51
2019-06-21T04:14:07.532Z,16.48
2019-06-21T04:16:38.108Z,16.56
2019-06-21T04:19:08.715Z,16.49
2019-06-21T04:21:40.241Z,16.38
2019-06-21T04:24:10.793Z,16.34
2019-06-21T04:26:41.426Z,16.32
2019-06-21T04:29:12.035Z,16.41
2019-06-21T04:31:42.551Z,16.51
2019-06-21T04:34:13.092Z,16.56
2019-06-21T04:36:46.456Z,16.60
2019-06-21T04:39:17.066Z,16.65
2019-06-21T04:41:47.594Z,16.69
2019-06-21T04:44:18.131Z,16.68
2019-06-21T04:46:48.708Z,16.69
2019-06-21T04:49:19.281Z,16.72
2019-06-21T04:51:49.887Z,16.75
2019-06-21T04:54:20.419Z,16.76
2019-06-21T04:56:50.966Z,16.78
2019-06-21T04:59:22.684Z,16.83
2019-06-21T05:01:57.074Z,16.88
2019-06-21T05:04:27.746Z,16.84
2019-06-21T05:06:58.336Z,16.85
2019-06-21T05:09:29.402Z,16.86
2019-06-21T05:12:00.023Z,16.92
2019-06-21T05:14:31.741Z,16.92
2019-06-21T05:17:02.435Z,16.99
2019-06-21T05:19:33.109Z,17.02
2019-06-21T05:22:03.641Z,17.01
2019-06-21T05:24:34.298Z,17.08
2019-06-21T05:27:04.855Z,17.10
2019-06-21T05:29:35.424Z,17.13
2019-06-21T05:32:08.170Z,17.15
2019-06-21T05:34:38.684Z,17.21
2019-06-21T05:37:09.269Z,17.25
2019-06-21T05:39:39.857Z,17.31
2019-06-21T05:42:10.405Z,17.38
2019-06-21T05:44:41.004Z,17.40
2019-06-21T05:47:11.622Z,17.40
2019-06-21T05:49:42.586Z,17.44
2019-06-21T05:52:13.195Z,17.52
2019-06-21T05:54:43.717Z,17.56
2019-06-21T05:57:14.288Z,17.61
2019-06-21T05:59:44.873Z,17.67
2019-06-21T06:02:15.454Z,17.68
2019-06-21T06:04:46.053Z,17.76
2019-06-21T06:07:16.687Z,17.82
2019-06-21T06:09:47.220Z,17.85
2019-06-21T06:12:17.928Z,17.83
2019-06-21T06:14:48.634Z,17.83
2019-06-21T06:17:22.390Z,17.80
2019-06-21T06:19:51.697Z,17.88
2019-06-21T06:22:22.307Z,17.90
2019-06-21T06:24:55.465Z,17.94
2019-06-21T06:27:25.169Z,18.05
2019-06-21T06:29:55.778Z,18.10
2019-06-21T06:32:26.615Z,18.14
2019-06-21T06:34:58.525Z,18.14
2019-06-21T06:37:29.654Z,18.16
2019-06-21T06:40:01.267Z,18.14
2019-06-21T06:42:31.800Z,18.22
2019-06-21T06:45:02.421Z,18.24
2019-06-21T06:47:33.028Z,18.26
2019-06-21T06:50:03.705Z,18.23
2019-06-21T06:52:34.585Z,18.18
2019-06-21T06:55:05.245Z,18.18
2019-06-21T06:57:35.957Z,18.26
2019-06-21T07:00:08.679Z,18.29
2019-06-21T07:02:39.248Z,18.35
2019-06-21T07:05:09.943Z,18.40
2019-06-21T07:07:40.539Z,18.40
2019-06-21T07:10:11.538Z,18.40
2019-06-21T07:12:44.249Z,18.41
2019-06-21T07:15:15.061Z,18.34
2019-06-21T07:17:45.522Z,18.36
2019-06-21T07:20:16.935Z,18.32
2019-06-21T07:22:47.541Z,18.34
2019-06-21T07:25:18.695Z,18.34
2019-06-21T07:27:49.332Z,18.37
2019-06-21T07:30:20.442Z,18.39
2019-06-21T07:32:51.050Z,18.45
2019-06-21T07:35:21.569Z,18.53
2019-06-21T07:37:52.198Z,18.62
2019-06-21T07:40:22.981Z,18.66
2019-06-21T07:42:53.656Z,18.66
2019-06-21T07:45:25.748Z,18.73
2019-06-21T07:47:56.294Z,18.78
2019-06-21T07:50:28.372Z,18.86
2019-06-21T07:53:01.720Z,18.86
2019-06-21T07:55:32.267Z,18.92
2019-06-21T07:58:02.937Z,19.01
2019-06-21T08:00:33.480Z,19.08
2019-06-21T08:03:04.058Z,19.09
2019-06-21T08:05:34.725Z,19.09
2019-06-21T08:08:05.505Z,19.14
2019-06-21T08:10:38.845Z,19.14
2019-06-21T08:13:09.457Z,19.14
2019-06-21T08:15:40.037Z,19.11
2019-06-21T08:18:10.865Z,19.21
2019-06-21T08:20:42.555Z,19.26
2019-06-21T08:23:15.179Z,19.32
2019-06-21T08:25:45.886Z,19.35
2019-06-21T08:28:16.437Z,19.31
2019-06-21T08:30:47.176Z,19.26
2019-06-21T08:33:17.802Z,19.26
2019-06-21T08:35:48.326Z,19.27
2019-06-21T08:38:20.287Z,19.33
2019-06-21T08:40:51.046Z,19.25
2019-06-21T08:43:23.591Z,19.33
2019-06-21T08:45:53.916Z,19.37
2019-06-21T08:48:29.112Z,19.38
2019-06-21T08:51:01.602Z,19.42
2019-06-21T08:53:32.145Z,19.46
2019-06-21T08:56:02.726Z,19.50
2019-06-21T08:58:34.282Z,19.50
2019-06-21T09:01:04.955Z,19.52
2019-06-21T09:03:38.463Z,19.56
2019-06-21T09:06:09.542Z,19.58
2019-06-21T09:08:41.421Z,19.58
2019-06-21T09:11:12.813Z,19.57
2019-06-21T09:13:43.437Z,19.57
2019-06-21T09:16:15.357Z,19.50
2019-06-21T09:18:46.030Z,19.50
2019-06-21T09:21:19.463Z,19.54
2019-06-21T09:23:48.897Z,19.56
2019-06-21T09:26:19.848Z,19.49
2019-06-21T09:28:50.493Z,19.54
2019-06-21T09:31:20.995Z,19.63
2019-06-21T09:33:51.717Z,19.69
2019-06-21T09:36:22.275Z,19.70
2019-06-21T09:38:53.076Z,19.75
2019-06-21T09:41:23.633Z,19.77
2019-06-21T09:43:56.633Z,19.75
2019-06-21T09:46:27.222Z,19.79
2019-06-21T09:48:57.863Z,19.88
2019-06-21T09:51:28.488Z,19.93
2019-06-21T09:53:59.051Z,19.98
2019-06-21T09:56:29.550Z,20.01
2019-06-21T09:59:04.491Z,20.06
2019-06-21T10:01:34.926Z,20.18
2019-06-21T10:04:05.876Z,20.27
2019-06-21T10:06:37.759Z,20.33
2019-06-21T10:09:09.332Z,20.35
2019-06-21T10:11:39.920Z,20.30
2019-06-21T10:14:11.028Z,20.34
2019-06-21T10:16:41.627Z,20.29
2019-06-21T10:19:12.160Z,20.27
2019-06-21T10:21:42.764Z,20.33
2019-06-21T10:24:13.284Z,20.38
2019-06-21T10:26:43.977Z,20.37
2019-06-21T10:29:14.565Z,20.38
2019-06-21T10:31:45.139Z,20.49
2019-06-21T10:34:18.233Z,20.58
2019-06-21T10:36:49.225Z,20.64
2019-06-21T10:39:19.787Z,20.74
2019-06-21T10:41:50.378Z,20.77
2019-06-21T10:44:20.921Z,20.82
2019-06-21T10:46:53.993Z,20.83
2019-06-21T10:49:23.840Z,20.86
2019-06-21T10:51:56.275Z,20.88
2019-06-21T10:54:26.697Z,20.93
2019-06-21T10:56:57.344Z,20.94
2019-06-21T10:59:27.897Z,20.91
2019-06-21T11:01:59.396Z,20.96
2019-06-21T11:04:30.027Z,21.01
2019-06-21T11:07:00.623Z,21.04
2019-06-21T11:09:31.182Z,21.06
2019-06-21T11:12:03.320Z,21.04
2019-06-21T11:14:34.005Z,21.03
2019-06-21T11:17:05.860Z,21.11
2019-06-21T11:19:36.447Z,21.16
2019-06-21T11:22:07.968Z,21.21
2019-06-21T11:24:38.751Z,21.32
2019-06-21T11:27:09.451Z,21.38
2019-06-21T11:29:40.052Z,21.40
2019-06-21T11:32:10.665Z,21.42
2019-06-21T11:34:41.260Z,21.53
2019-06-21T11:37:11.873Z,21.55
2019-06-21T11:39:44.689Z,21.60
2019-06-21T11:42:15.313Z,21.62
2019-06-21T11:44:45.894Z,21.69
2019-06-21T11:47:16.513Z,21.65
2019-06-21T11:49:47.086Z,21.66
2019-06-21T11:52:17.718Z,21.64
2019-06-21T11:54:48.282Z,21.67
2019-06-21T11:57:18.892Z,21.78
2019-06-21T11:59:49.447Z,21.87
2019-06-21T12:02:20.068Z,21.87
2019-06-21T12:04:50.712Z,21.81
2019-06-21T12:07:25.047Z,21.85
2019-06-21T12:09:55.630Z,21.91
2019-06-21T12:12:26.214Z,22.00
2019-06-21T12:14:58.927Z,21.92
2019-06-21T12:17:29.136Z,21.95
2019-06-21T12:20:00.515Z,22.00
2019-06-21T12:22:31.580Z,22.01
2019-06-21T12:25:03.542Z,22.08
2019-06-21T12:27:34.292Z,22.21
2019-06-21T12:30:06.372Z,22.21
2019-06-21T12:32:37.840Z,22.27
2019-06-21T12:35:08.456Z,22.29
2019-06-21T12:37:39.091Z,22.25
2019-06-21T12:40:10.288Z,22.18
2019-06-21T12:42:40.797Z,22.21
2019-06-21T12:45:12.992Z,22.21
2019-06-21T12:47:43.671Z,22.28
2019-06-21T12:50:15.415Z,22.24
2019-06-21T12:52:46.007Z,22.23
2019-06-21T12:55:16.771Z,22.27
2019-06-21T12:57:47.367Z,22.33
2019-06-21T13:00:19.879Z,22.36
2019-06-21T13:02:50.567Z,22.41
2019-06-21T13:05:21.098Z,22.44
2019-06-21T13:07:51.766Z,22.47
2019-06-21T13:10:22.438Z,22.50
2019-06-21T13:12:53.094Z,22.51
2019-06-21T13:15:24.812Z,22.57
2019-06-21T13:17:55.569Z,22.62
2019-06-21T13:20:26.315Z,22.75
2019-06-21T13:22:57.973Z,22.70
2019-06-21T13:25:31.205Z,22.79
2019-06-21T13:28:02.216Z,22.85
2019-06-21T13:30:34.173Z,22.82
2019-06-21T13:33:05.357Z,22.85
2019-06-21T13:35:36.225Z,22.94
2019-06-21T13:38:06.801Z,23.05
2019-06-21T13:40:40.302Z,23.18
2019-06-21T13:43:10.864Z,23.24
2019-06-21T13:45:41.412Z,23.30
2019-06-21T13:48:12.040Z,23.39
2019-06-21T13:50:42.610Z,23.41
2019-06-21T13:53:13.178Z,23.49
2019-06-21T13:55:43.879Z,23.54
2019-06-21T13:58:14.399Z,23.62
2019-06-21T14:00:45.011Z,23.66
2019-06-21T14:03:15.861Z,23.85
2019-06-21T14:05:46.400Z,24.00
2019-06-21T14:08:17.002Z,24.01
2019-06-21T14:10:47.597Z,23.99
2019-06-21T14:13:19.995Z,23.95
2019-06-21T14:15:50.704Z,23.84
2019-06-21T14:18:21.237Z,23.86
2019-06-21T14:20:51.911Z,23.89
2019-06-21T14:23:22.452Z,24.08
2019-06-21T14:26:09.358Z,24.18
2019-06-21T14:28:39.975Z,24.32
2019-06-21T14:31:10.556Z,24.45
2019-06-21T14:33:41.222Z,24.68
2019-06-21T14:36:15.368Z,24.83
2019-06-21T14:38:45.965Z,24.78
2019-06-21T14:41:16.534Z,24.82
2019-06-21T14:43:47.080Z,24.80
2019-06-21T14:46:17.632Z,24.94
2019-06-21T14:48:52.967Z,24.93
2019-06-21T14:51:23.668Z,24.96
2019-06-21T14:53:54.209Z,25.03
2019-06-21T14:56:24.850Z,25.12
2019-06-21T14:58:56.925Z,25.24
2019-06-21T15:01:27.787Z,25.37
2019-06-21T15:03:59.780Z,25.53
2019-06-21T15:06:30.706Z,25.56
2019-06-21T15:09:01.620Z,25.68
2019-06-21T15:11:32.191Z,25.70
2019-06-21T15:14:03.397Z,25.77
2019-06-21T15:16:34.021Z,25.98
2019-06-21T15:19:04.927Z,26.07
2019-06-21T15:21:35.629Z,26.03
2019-06-21T15:24:06.344Z,26.19
2019-06-21T15:26:36.864Z,26.42
2019-06-21T15:29:07.464Z,26.45
2019-06-21T15:31:38.096Z,26.42
2019-06-21T15:34:08.685Z,26.32
2019-06-21T15:36:39.279Z,26.51
2019-06-21T15:39:10.078Z,26.61
2019-06-21T15:41:40.621Z,26.60
2019-06-21T15:44:11.211Z,26.70
2019-06-21T15:46:41.753Z,26.83
2019-06-21T15:49:12.335Z,26.98
2019-06-21T15:51:42.896Z,27.31
2019-06-21T15:54:13.465Z,27.40
2019-06-21T15:56:44.102Z,27.36
2019-06-21T15:59:16.548Z,27.43
2019-06-21T16:01:47.052Z,27.24
2019-06-21T16:04:17.707Z,27.10
2019-06-21T16:06:52.309Z,27.04
2019-06-21T16:09:25.039Z,27.00
2019-06-21T16:12:00.588Z,26.79
2019-06-21T16:14:31.219Z,26.76
2019-06-21T16:17:03.583Z,26.74
2019-06-21T16:19:34.110Z,26.65
2019-06-21T16:22:04.747Z,26.66
2019-06-21T16:24:36.963Z,26.53
2019-06-21T16:27:07.510Z,26.63
2019-06-21T16:29:38.105Z,26.62
2019-06-21T16:32:08.680Z,26.64
2019-06-21T16:34:42.022Z,26.41
2019-06-21T16:37:18.028Z,26.66
2019-06-21T16:39:48.689Z,26.68
2019-06-21T16:42:19.270Z,26.65
2019-06-21T16:44:49.828Z,26.59
2019-06-21T16:47:20.432Z,26.63
2019-06-21T16:49:57.449Z,26.91
2019-06-21T16:52:28.063Z,27.06
2019-06-21T16:55:00.225Z,27.03
2019-06-21T16:57:30.806Z,27.20
2019-06-21T17:00:01.488Z,27.48
2019-06-21T17:02:32.125Z,27.64
2019-06-21T17:05:02.747Z,27.80
2019-06-21T17:07:36.475Z,27.86
2019-06-21T17:10:07.652Z,28.13
2019-06-21T17:12:38.246Z,28.04
2019-06-21T17:15:09.120Z,28.30
2019-06-21T17:17:39.686Z,28.44
2019-06-21T17:20:10.869Z,28.26
2019-06-21T17:22:41.444Z,28.40
2019-06-21T17:25:16.869Z,28.63
2019-06-21T17:27:48.931Z,28.73
2019-06-21T17:30:19.865Z,28.74
2019-06-21T17:32:51.085Z,28.55
2019-06-21T17:35:21.684Z,28.23
2019-06-21T17:37:55.025Z,28.00
2019-06-21T17:40:28.171Z,27.95
2019-06-21T17:43:01.084Z,27.68
2019-06-21T17:45:32.552Z,27.38
2019-06-21T17:48:03.201Z,27.03
2019-06-21T17:50:34.072Z,26.81
2019-06-21T17:53:04.673Z,26.56
2019-06-21T17:55:35.441Z,26.20
2019-06-21T17:58:06.072Z,26.09
2019-06-21T18:00:47.444Z,25.85
2019-06-21T18:03:18.123Z,25.79
2019-06-21T18:05:48.700Z,25.61
2019-06-21T18:08:19.225Z,25.55
2019-06-21T18:10:49.930Z,25.40
2019-06-21T18:13:20.586Z,25.25
2019-06-21T18:15:51.348Z,25.12
2019-06-21T18:18:21.897Z,25.03
2019-06-21T18:20:52.513Z,24.83
2019-06-21T18:23:23.186Z,24.72
2019-06-21T18:25:54.962Z,24.58
2019-06-21T18:28:25.587Z,24.41
2019-06-21T18:30:56.209Z,24.29
2019-06-21T18:33:26.788Z,24.14
2019-06-21T18:35:57.422Z,24.04
2019-06-21T18:38:28.109Z,23.93
2019-06-21T18:40:58.669Z,23.83
2019-06-21T18:43:29.318Z,23.72
2019-06-21T18:45:59.892Z,23.69
2019-06-21T18:48:30.478Z,23.57
2019-06-21T18:51:01.089Z,23.52
2019-06-21T18:53:31.692Z,23.41
2019-06-21T18:56:02.254Z,23.34
2019-06-21T18:58:32.875Z,23.30
2019-06-21T19:01:03.444Z,23.21
2019-06-21T19:03:34.116Z,23.11
2019-06-21T19:06:04.761Z,23.08
2019-06-21T19:08:38.020Z,23.02
2019-06-21T19:11:08.644Z,22.92
2019-06-21T19:13:39.267Z,22.80
2019-06-21T19:16:09.853Z,22.69
2019-06-21T19:18:40.481Z,22.58
2019-06-21T19:21:11.028Z,22.51
2019-06-21T19:23:41.646Z,22.39
2019-06-21T19:26:12.214Z,22.30
2019-06-21T19:28:42.747Z,22.26
2019-06-21T19:31:13.375Z,22.13
2019-06-21T19:33:43.958Z,22.08
2019-06-21T19:36:14.539Z,21.92
2019-06-21T19:38:45.144Z,21.87
2019-06-21T19:41:15.742Z,21.85
2019-06-21T19:43:46.389Z,21.86
2019-06-21T19:46:18.295Z,21.83
2019-06-21T19:48:51.997Z,21.82
2019-06-21T19:51:24.665Z,21.70
2019-06-21T19:53:54.907Z,21.59
2019-06-21T19:56:25.494Z,21.51
2019-06-21T19:58:56.111Z,21.50
2019-06-21T20:01:27.729Z,21.38
2019-06-21T20:03:58.270Z,21.28
2019-06-21T20:06:28.953Z,21.26
2019-06-21T20:08:59.483Z,21.14
2019-06-21T20:11:30.057Z,21.01
2019-06-21T20:14:00.701Z,20.98
2019-06-21T20:16:31.217Z,20.95
2019-06-21T20:19:01.841Z,20.82
2019-06-21T20:21:32.409Z,20.75
2019-06-21T20:24:02.956Z,20.77
2019-06-21T20:26:33.613Z,20.70
2019-06-21T20:29:04.194Z,20.61
2019-06-21T20:31:37.779Z,20.54
2019-06-21T20:34:08.378Z,20.52
2019-06-21T20:36:38.971Z,20.43
2019-06-21T20:39:09.788Z,20.45
2019-06-21T20:41:40.451Z,20.48
2019-06-21T20:44:11.000Z,20.42
2019-06-21T20:46:41.604Z,20.39
2019-06-21T20:49:14.970Z,20.42
2019-06-21T20:51:44.715Z,20.37
2019-06-21T20:54:16.868Z,20.31
2019-06-21T20:56:47.384Z,20.27
2019-06-21T20:59:18.068Z,20.21
2019-06-21T21:01:48.596Z,20.14
2019-06-21T21:04:19.166Z,20.05
2019-06-21T21:06:49.841Z,20.01
2019-06-21T21:09:20.406Z,19.98
2019-06-21T21:11:50.967Z,19.98
2019-06-21T21:14:21.525Z,19.96
2019-06-21T21:16:52.147Z,19.94
2019-06-21T21:19:29.304Z,19.83
2019-06-21T21:21:55.048Z,19.79
2019-06-21T21:24:28.135Z,19.73
2019-06-21T21:26:58.750Z,19.73
2019-06-21T21:29:29.350Z,19.72
2019-06-21T21:31:59.886Z,19.67
2019-06-21T21:34:30.719Z,19.64
2019-06-21T21:37:01.322Z,19.58
2019-06-21T21:39:33.547Z,19.55
2019-06-21T21:42:04.210Z,19.53
2019-06-21T21:44:34.823Z,19.42
2019-06-21T21:47:05.409Z,19.41
2019-06-21T21:49:45.166Z,19.42
2019-06-21T21:52:09.078Z,19.39
2019-06-21T21:54:41.680Z,19.30
2019-06-21T21:57:13.027Z,19.30
2019-06-21T21:59:43.511Z,19.21
2019-06-21T22:02:14.126Z,19.14
2019-06-21T22:04:47.155Z,19.04
2019-06-21T22:07:17.809Z,19.00
2019-06-21T22:09:48.440Z,18.96
2019-06-21T22:12:19.166Z,18.74
2019-06-21T22:14:51.455Z,18.70
2019-06-21T22:17:22.059Z,18.65
2019-06-21T22:20:01.180Z,18.51
2019-06-21T22:22:24.957Z,18.55
2019-06-21T22:24:55.554Z,18.52
2019-06-21T22:27:26.189Z,18.45
2019-06-21T22:29:56.737Z,18.38
2019-06-21T22:32:27.359Z,18.25
2019-06-21T22:34:57.972Z,18.20
2019-06-21T22:37:28.571Z,18.18
2019-06-21T22:40:00.853Z,18.01
2019-06-21T22:42:31.473Z,17.72
2019-06-21T22:45:02.043Z,17.79
2019-06-21T22:47:32.553Z,17.60
2019-06-21T22:50:16.360Z,17.63
2019-06-21T22:52:35.493Z,17.45
2019-06-21T22:55:06.375Z,17.54
2019-06-21T22:57:36.992Z,17.51
2019-06-21T23:00:08.753Z,17.36
2019-06-21T23:02:39.583Z,17.41
2019-06-21T23:05:10.288Z,17.44
2019-06-21T23:07:40.873Z,17.42
2019-06-21T23:10:12.441Z,17.40
2019-06-21T23:12:43.020Z,17.30
2019-06-21T23:15:13.954Z,17.15
2019-06-21T23:17:44.541Z,17.08
2019-06-21T23:20:15.231Z,17.03
2019-06-21T23:22:45.844Z,16.82
2019-06-21T23:25:20.838Z,16.90
2019-06-21T23:27:55.608Z,16.74
2019-06-21T23:30:28.871Z,16.77
2019-06-21T23:32:59.430Z,16.62
2019-06-21T23:35:31.244Z,16.68
2019-06-21T23:38:01.880Z,16.53
2019-06-21T23:40:32.524Z,16.52
2019-06-21T23:43:04.427Z,16.44
2019-06-21T23:45:37.228Z,16.27
2019-06-21T23:48:07.747Z,16.35
2019-06-21T23:50:47.861Z,16.28
2019-06-21T23:53:11.381Z,16.30
2019-06-21T23:55:41.921Z,16.15
2019-06-21T23:58:12.489Z,16.21
